Acornridge, Missouri
Current Conditions -  °F | °C
As of 8:53 PM on Saturday 20 Dec 2014 (Local Time) from KPOF Reporting Station
Overcast Overcast  
Wind Chill: 42°   Ceiling: 2400
Heat Index: 42°   Visibility: 10mi
Dew Point: 34°   Wind: 0mph
Humidity: 73%   Direction: NA
Pressure: 30.26"   Gusts: NA
Location:  36.9506°N, 90.1582°W
Report Text: KPOF 210253Z AUTO 00000KT 10SM OVC024 06/01 A3026 RMK AO2 SLP251 T00560011 50004
Loading
Personal Weather Stations






























Interactive Weather Map New forecast layout! Learn more

10-Day Weather Forecast

Advertisements
Track Severe Weather on mobile